createdAt,value
2022-10-23T00:06:21.098Z,46.70
2022-10-23T00:16:27.596Z,47.85
2022-10-23T00:26:31.826Z,47.27
2022-10-23T00:36:39.085Z,51.97
2022-10-23T00:46:42.274Z,49.05
2022-10-23T00:56:47.067Z,52.97
2022-10-23T01:07:15.392Z,49.10
2022-10-23T01:17:51.889Z,51.95
2022-10-23T01:28:03.433Z,53.35
2022-10-23T01:38:29.016Z,54.97
2022-10-23T01:48:34.895Z,56.00
2022-10-23T01:58:40.477Z,53.53
2022-10-23T02:08:43.373Z,56.72
2022-10-23T02:19:13.206Z,56.35
2022-10-23T02:29:42.874Z,55.03
2022-10-23T02:39:48.501Z,54.80
2022-10-23T02:49:55.244Z,55.70
2022-10-23T03:00:15.282Z,53.45
2022-10-23T03:10:21.097Z,58.58
2022-10-23T03:20:25.022Z,51.92
2022-10-23T03:30:31.853Z,54.15
2022-10-23T03:40:34.112Z,58.45
2022-10-23T03:50:36.468Z,62.28
2022-10-23T04:00:40.894Z,64.60
2022-10-23T04:10:43.581Z,57.70
2022-10-23T04:20:49.530Z,56.00
2022-10-23T04:30:51.742Z,56.05
2022-10-23T04:40:53.808Z,45.17
2022-10-23T04:51:02.160Z,54.13
2022-10-23T05:01:25.149Z,54.28
2022-10-23T05:11:31.534Z,56.88
2022-10-23T05:21:35.684Z,52.10
2022-10-23T05:31:40.876Z,49.75
2022-10-23T05:41:50.193Z,51.75
2022-10-23T05:51:59.474Z,47.10
2022-10-23T06:02:16.453Z,56.75
2022-10-23T06:12:35.838Z,56.67
2022-10-23T06:22:42.977Z,50.03
2022-10-23T06:33:06.542Z,42.00
2022-10-23T06:43:12.333Z,41.70
2022-10-23T06:53:32.962Z,36.72
2022-10-23T07:03:44.537Z,37.17
2022-10-23T07:13:47.143Z,30.83
2022-10-23T07:23:53.511Z,30.20
2022-10-23T07:33:56.241Z,30.42
2022-10-23T07:44:01.522Z,37.83
2022-10-23T07:54:07.836Z,30.80
2022-10-23T08:04:36.111Z,28.63
2022-10-23T08:14:48.725Z,32.67
2022-10-23T08:24:51.365Z,25.50
2022-10-23T08:34:59.325Z,26.20
2022-10-23T08:45:17.557Z,29.15
2022-10-23T08:55:23.288Z,26.33
2022-10-23T09:05:33.126Z,26.35
2022-10-23T09:15:36.142Z,28.05
2022-10-23T09:25:41.173Z,29.23
2022-10-23T09:36:03.867Z,30.80
2022-10-23T09:46:12.265Z,25.40
2022-10-23T10:07:23.896Z,23.80
2022-10-23T10:17:31.846Z,24.05
2022-10-23T10:28:20.968Z,22.13
2022-10-23T10:38:51.080Z,24.67
2022-10-23T10:49:10.517Z,19.60
2022-10-23T10:59:32.756Z,17.85
2022-10-23T11:09:35.948Z,17.33
2022-10-23T11:20:06.920Z,14.18
2022-10-23T11:30:21.890Z,17.17
2022-10-23T11:40:27.323Z,17.80
2022-10-23T11:50:59.146Z,18.50
2022-10-23T12:01:36.238Z,13.98
2022-10-23T12:11:48.279Z,14.82
2022-10-23T12:22:02.637Z,15.07
2022-10-23T12:32:30.485Z,14.07
2022-10-23T12:42:34.905Z,16.55
2022-10-23T12:52:40.382Z,15.15
2022-10-23T13:02:46.845Z,14.73
2022-10-23T13:12:55.407Z,14.50
2022-10-23T13:23:19.374Z,18.60
2022-10-23T13:33:22.291Z,18.27
2022-10-23T13:43:28.145Z,21.42
2022-10-23T13:53:33.312Z,21.92
2022-10-23T14:03:36.514Z,22.67
2022-10-23T14:13:45.422Z,23.13
2022-10-23T14:23:48.524Z,20.30
2022-10-23T14:33:58.814Z,20.58
2022-10-23T14:44:07.649Z,19.05
2022-10-23T14:54:18.006Z,20.27
2022-10-23T15:04:29.900Z,17.85
2022-10-23T15:14:34.984Z,16.02
2022-10-23T15:24:39.660Z,16.30
2022-10-23T15:34:43.004Z,19.77
2022-10-23T15:44:47.866Z,16.67
2022-10-23T15:54:50.033Z,24.13
2022-10-23T16:04:52.147Z,19.85
2022-10-23T16:14:55.242Z,19.90
2022-10-23T16:24:59.633Z,22.80
2022-10-23T16:35:09.786Z,19.52
2022-10-23T16:45:34.448Z,26.50
2022-10-23T16:55:44.566Z,22.85
2022-10-23T17:05:46.860Z,25.88
2022-10-23T17:15:51.481Z,23.80
2022-10-23T17:25:54.192Z,22.35
2022-10-23T17:36:03.725Z,24.77
2022-10-23T17:46:06.911Z,60.70
2022-10-23T17:56:13.212Z,23.17
2022-10-23T18:06:23.362Z,27.42
2022-10-23T18:16:28.857Z,23.08
2022-10-23T18:26:39.348Z,20.17
2022-10-23T18:36:44.161Z,21.73
2022-10-23T18:46:48.304Z,21.67
2022-10-23T18:56:54.849Z,21.13
2022-10-23T19:07:04.138Z,21.02
2022-10-23T19:17:21.737Z,25.25
2022-10-23T19:27:28.716Z,28.40
2022-10-23T19:37:30.936Z,30.65
2022-10-23T19:47:34.575Z,31.80
2022-10-23T19:57:38.860Z,31.58
2022-10-23T20:07:41.090Z,31.75
2022-10-23T20:17:43.290Z,33.00
2022-10-23T20:27:47.771Z,33.10
2022-10-23T20:37:55.911Z,34.08
2022-10-23T20:48:00.301Z,35.33
2022-10-23T20:58:04.785Z,35.97
2022-10-23T21:08:09.318Z,40.42
2022-10-23T21:18:27.542Z,39.05
2022-10-23T21:28:37.967Z,34.58
2022-10-23T21:38:44.225Z,36.00
2022-10-23T21:48:46.288Z,36.25
2022-10-23T21:58:53.976Z,37.58
2022-10-23T22:09:00.279Z,40.50
2022-10-23T22:19:02.467Z,43.53
2022-10-23T22:29:09.517Z,43.05
2022-10-23T22:39:14.185Z,38.63
2022-10-23T22:49:16.834Z,38.90
2022-10-23T22:59:21.337Z,44.15
2022-10-23T23:09:23.472Z,43.70
2022-10-23T23:19:26.826Z,41.03
2022-10-23T23:29:34.399Z,41.10
2022-10-23T23:39:38.765Z,40.00
2022-10-23T23:49:40.756Z,43.50
2022-10-23T23:59:42.742Z,39.63
